Eider — VRAG4 — position and weather

sailwx.info

Track history (hours):
 
Tides and Currents Weather Stations Pressure Air Temp Water Temp Dewpoint Dewpoint Depression Visibility Wind Speed Wind Dir Waves Ship Positions

Eider

Last reported at 2018-Feb-03 06:30 UTC. Time now 2018-Apr-24 23:06 UTC.
Position N 38°43' E 008°43'.
Warning: this ship's position is months out of date.

Length 200 m; draft 7.4 m.

Type: Cargo ship. MMSI: 477480600.

Date/timePositionNaut miles runAvg speedWind from/ knotsBaromVisibWave heightAir tempDewpointWater temp
2018-Feb-03 06:30N 38°43' E 008°43'710.3
2018-Feb-03 05:52N 38°41' E 008°51'24811.5
2018-Feb-02 08:19N 36°60' E 013°38'412.1
2018-Feb-02 07:59N 36°58' E 013°43'612.3
2018-Feb-02 07:30N 36°56' E 013°50'612.1
2018-Feb-02 07:00N 36°54' E 013°57'612.0
2018-Feb-02 06:30N 36°52' E 014°04'612.0
2018-Feb-02 06:00N 36°49' E 014°11'612.1
2018-Feb-02 05:30N 36°47' E 014°18'611.7
2018-Feb-02 05:00N 36°45' E 014°24'611.1
2018-Feb-02 04:30N 36°43' E 014°31'610.9
2018-Feb-02 04:00N 36°41' E 014°37'10210.5
2018-Feb-01 18:12N 37°42' E 016°20'311.7
2018-Feb-01 17:59N 37°44' E 016°22'611.7
2018-Feb-01 17:29N 37°49' E 016°26'611.5
2018-Feb-01 17:00N 37°53' E 016°31'611.5
2018-Feb-01 16:30N 37°58' E 016°35'611.8
2018-Feb-01 16:00N 38°02' E 016°40'611.8
2018-Feb-01 15:30N 38°07' E 016°45'611.5
2018-Feb-01 15:00N 38°11' E 016°50'1711.6
2018-Feb-01 13:30N 38°24' E 017°05'612.0
2018-Feb-01 13:00N 38°29' E 017°10'611.9
2018-Feb-01 12:30N 38°34' E 017°14'611.8
2018-Feb-01 12:00N 38°38' E 017°19'1211.8
2018-Feb-01 11:00N 38°47' E 017°29'612.0
2018-Feb-01 10:30N 38°52' E 017°33'612.4
2018-Feb-01 10:00N 38°57' E 017°38'612.4
2018-Feb-01 09:30N 39°02' E 017°43'612.5
2018-Feb-01 09:00N 39°07' E 017°48'612.5
2018-Feb-01 08:30N 39°12' E 017°53'4112.5
2018-Feb-01 05:14N 39°44' E 018°25'513.0
2018-Feb-01 04:50N 39°48' E 018°29'412.7
2018-Feb-01 04:30N 39°52' E 018°31'613.0
2018-Feb-01 04:00N 39°58' E 018°34'  
Track history (hours):
 
Tides and Currents Weather Stations Pressure Air Temp Water Temp Dewpoint Dewpoint Depression Visibility Wind Speed Wind Dir Waves Ship Positions

Eider

Last reported at 2018-Feb-03 06:30 UTC. Time now 2018-Apr-24 23:06 UTC.
Position N 38°43' E 008°43'.
Warning: this ship's position is months out of date.

Length 200 m; draft 7.4 m.

Type: Cargo ship. MMSI: 477480600.

Date/timePositionNaut miles runAvg speedWind from/ knotsBaromVisibWave heightAir tempDewpointWater temp
2018-Feb-03 06:30N 38°43' E 008°43'710.3
2018-Feb-03 05:52N 38°41' E 008°51'24811.5
2018-Feb-02 08:19N 36°60' E 013°38'412.1
2018-Feb-02 07:59N 36°58' E 013°43'612.3
2018-Feb-02 07:30N 36°56' E 013°50'612.1
2018-Feb-02 07:00N 36°54' E 013°57'612.0
2018-Feb-02 06:30N 36°52' E 014°04'612.0
2018-Feb-02 06:00N 36°49' E 014°11'612.1
2018-Feb-02 05:30N 36°47' E 014°18'611.7
2018-Feb-02 05:00N 36°45' E 014°24'611.1
2018-Feb-02 04:30N 36°43' E 014°31'610.9
2018-Feb-02 04:00N 36°41' E 014°37'10210.5
2018-Feb-01 18:12N 37°42' E 016°20'311.7
2018-Feb-01 17:59N 37°44' E 016°22'611.7
2018-Feb-01 17:29N 37°49' E 016°26'611.5
2018-Feb-01 17:00N 37°53' E 016°31'611.5
2018-Feb-01 16:30N 37°58' E 016°35'611.8
2018-Feb-01 16:00N 38°02' E 016°40'611.8
2018-Feb-01 15:30N 38°07' E 016°45'611.5
2018-Feb-01 15:00N 38°11' E 016°50'1711.6
2018-Feb-01 13:30N 38°24' E 017°05'612.0
2018-Feb-01 13:00N 38°29' E 017°10'611.9
2018-Feb-01 12:30N 38°34' E 017°14'611.8
2018-Feb-01 12:00N 38°38' E 017°19'1211.8
2018-Feb-01 11:00N 38°47' E 017°29'612.0
2018-Feb-01 10:30N 38°52' E 017°33'612.4
2018-Feb-01 10:00N 38°57' E 017°38'612.4
2018-Feb-01 09:30N 39°02' E 017°43'612.5
2018-Feb-01 09:00N 39°07' E 017°48'612.5
2018-Feb-01 08:30N 39°12' E 017°53'4112.5
2018-Feb-01 05:14N 39°44' E 018°25'513.0
2018-Feb-01 04:50N 39°48' E 018°29'412.7
2018-Feb-01 04:30N 39°52' E 018°31'613.0
2018-Feb-01 04:00N 39°58' E 018°34'  

Dump ship's entire track history